sensor_id;sensor_type;location;lat;lon;timestamp;P1;durP1;ratioP1;P2;durP2;ratioP2
13443;SDS011;6794;59.218;18.218;2022-07-15T00:02:13;0.70;;;0.70;;
13443;SDS011;6794;59.218;18.218;2022-07-15T00:04:39;0.90;;;0.73;;
13443;SDS011;6794;59.218;18.218;2022-07-15T00:07:05;1.00;;;0.90;;
13443;SDS011;6794;59.218;18.218;2022-07-15T00:09:32;2.63;;;0.80;;
13443;SDS011;6794;59.218;18.218;2022-07-15T00:12:17;0.80;;;0.80;;
13443;SDS011;6794;59.218;18.218;2022-07-15T00:14:43;1.57;;;0.73;;
13443;SDS011;6794;59.218;18.218;2022-07-15T00:17:09;0.70;;;0.70;;
13443;SDS011;6794;59.218;18.218;2022-07-15T00:19:35;1.47;;;0.70;;
13443;SDS011;6794;59.218;18.218;2022-07-15T00:22:01;0.70;;;0.70;;
13443;SDS011;6794;59.218;18.218;2022-07-15T00:24:28;0.80;;;0.70;;
13443;SDS011;6794;59.218;18.218;2022-07-15T00:26:55;0.60;;;0.60;;
13443;SDS011;6794;59.218;18.218;2022-07-15T00:29:21;1.03;;;0.80;;
13443;SDS011;6794;59.218;18.218;2022-07-15T00:31:47;1.03;;;0.60;;
13443;SDS011;6794;59.218;18.218;2022-07-15T00:34:13;0.83;;;0.77;;
13443;SDS011;6794;59.218;18.218;2022-07-15T00:36:41;0.50;;;0.50;;
13443;SDS011;6794;59.218;18.218;2022-07-15T00:39:07;0.50;;;0.50;;
13443;SDS011;6794;59.218;18.218;2022-07-15T00:41:38;0.60;;;0.60;;
13443;SDS011;6794;59.218;18.218;2022-07-15T00:44:04;0.50;;;0.50;;
13443;SDS011;6794;59.218;18.218;2022-07-15T00:46:30;0.40;;;0.40;;
13443;SDS011;6794;59.218;18.218;2022-07-15T00:48:59;0.57;;;0.57;;
13443;SDS011;6794;59.218;18.218;2022-07-15T00:51:26;1.57;;;0.50;;
13443;SDS011;6794;59.218;18.218;2022-07-15T00:53:52;0.53;;;0.30;;
13443;SDS011;6794;59.218;18.218;2022-07-15T00:56:18;0.40;;;0.40;;
13443;SDS011;6794;59.218;18.218;2022-07-15T00:58:45;1.30;;;0.57;;
13443;SDS011;6794;59.218;18.218;2022-07-15T01:01:13;0.83;;;0.40;;
13443;SDS011;6794;59.218;18.218;2022-07-15T01:03:40;0.50;;;0.50;;
13443;SDS011;6794;59.218;18.218;2022-07-15T01:06:06;0.50;;;0.50;;
13443;SDS011;6794;59.218;18.218;2022-07-15T01:08:32;0.40;;;0.40;;
13443;SDS011;6794;59.218;18.218;2022-07-15T01:10:59;0.30;;;0.30;;
13443;SDS011;6794;59.218;18.218;2022-07-15T01:13:25;1.40;;;0.40;;
13443;SDS011;6794;59.218;18.218;2022-07-15T01:15:51;1.73;;;0.50;;
13443;SDS011;6794;59.218;18.218;2022-07-15T01:18:18;1.10;;;0.40;;
13443;SDS011;6794;59.218;18.218;2022-07-15T01:20:44;0.60;;;0.50;;
13443;SDS011;6794;59.218;18.218;2022-07-15T01:23:11;1.23;;;0.57;;
13443;SDS011;6794;59.218;18.218;2022-07-15T01:25:38;2.47;;;0.53;;
13443;SDS011;6794;59.218;18.218;2022-07-15T01:28:05;1.43;;;0.60;;
13443;SDS011;6794;59.218;18.218;2022-07-15T01:30:31;2.27;;;0.77;;
13443;SDS011;6794;59.218;18.218;2022-07-15T01:32:57;1.60;;;0.40;;
13443;SDS011;6794;59.218;18.218;2022-07-15T01:35:23;1.80;;;0.40;;
13443;SDS011;6794;59.218;18.218;2022-07-15T01:37:49;0.47;;;0.47;;
13443;SDS011;6794;59.218;18.218;2022-07-15T01:40:15;0.73;;;0.40;;
13443;SDS011;6794;59.218;18.218;2022-07-15T01:42:41;1.07;;;0.50;;
13443;SDS011;6794;59.218;18.218;2022-07-15T01:45:09;0.50;;;0.30;;
13443;SDS011;6794;59.218;18.218;2022-07-15T01:47:46;0.40;;;0.40;;
13443;SDS011;6794;59.218;18.218;2022-07-15T01:50:13;0.50;;;0.50;;
13443;SDS011;6794;59.218;18.218;2022-07-15T01:52:39;0.40;;;0.40;;
13443;SDS011;6794;59.218;18.218;2022-07-15T01:55:05;2.10;;;0.50;;
13443;SDS011;6794;59.218;18.218;2022-07-15T01:57:32;1.20;;;0.53;;
13443;SDS011;6794;59.218;18.218;2022-07-15T01:59:58;0.50;;;0.50;;
13443;SDS011;6794;59.218;18.218;2022-07-15T02:02:24;0.67;;;0.40;;
13443;SDS011;6794;59.218;18.218;2022-07-15T02:04:51;1.43;;;0.50;;
13443;SDS011;6794;59.218;18.218;2022-07-15T02:07:17;0.30;;;0.30;;
13443;SDS011;6794;59.218;18.218;2022-07-15T02:09:43;1.70;;;0.40;;
13443;SDS011;6794;59.218;18.218;2022-07-15T02:12:10;0.40;;;0.40;;
13443;SDS011;6794;59.218;18.218;2022-07-15T02:14:36;0.50;;;0.50;;
13443;SDS011;6794;59.218;18.218;2022-07-15T02:17:02;0.30;;;0.30;;
13443;SDS011;6794;59.218;18.218;2022-07-15T02:19:28;0.40;;;0.33;;
13443;SDS011;6794;59.218;18.218;2022-07-15T02:21:54;1.77;;;0.43;;
13443;SDS011;6794;59.218;18.218;2022-07-15T02:24:20;0.47;;;0.47;;
13443;SDS011;6794;59.218;18.218;2022-07-15T02:26:47;0.40;;;0.40;;
13443;SDS011;6794;59.218;18.218;2022-07-15T02:29:16;0.97;;;0.50;;
13443;SDS011;6794;59.218;18.218;2022-07-15T02:31:43;0.93;;;0.30;;
13443;SDS011;6794;59.218;18.218;2022-07-15T02:34:09;0.30;;;0.30;;
13443;SDS011;6794;59.218;18.218;2022-07-15T02:36:35;0.40;;;0.40;;
13443;SDS011;6794;59.218;18.218;2022-07-15T02:39:02;0.43;;;0.37;;
13443;SDS011;6794;59.218;18.218;2022-07-15T02:41:28;0.40;;;0.40;;
13443;SDS011;6794;59.218;18.218;2022-07-15T02:43:54;0.30;;;0.30;;
13443;SDS011;6794;59.218;18.218;2022-07-15T02:46:21;0.40;;;0.40;;
13443;SDS011;6794;59.218;18.218;2022-07-15T02:48:47;0.37;;;0.37;;
13443;SDS011;6794;59.218;18.218;2022-07-15T02:51:13;0.77;;;0.50;;
13443;SDS011;6794;59.218;18.218;2022-07-15T02:53:39;0.40;;;0.40;;
13443;SDS011;6794;59.218;18.218;2022-07-15T02:56:05;0.60;;;0.40;;
13443;SDS011;6794;59.218;18.218;2022-07-15T02:58:31;0.40;;;0.40;;
13443;SDS011;6794;59.218;18.218;2022-07-15T03:00:58;3.00;;;0.50;;
13443;SDS011;6794;59.218;18.218;2022-07-15T03:03:25;0.50;;;0.50;;
13443;SDS011;6794;59.218;18.218;2022-07-15T03:05:53;0.30;;;0.30;;
13443;SDS011;6794;59.218;18.218;2022-07-15T03:08:19;2.37;;;0.43;;
13443;SDS011;6794;59.218;18.218;2022-07-15T03:10:45;0.50;;;0.50;;
13443;SDS011;6794;59.218;18.218;2022-07-15T03:13:11;0.50;;;0.50;;
13443;SDS011;6794;59.218;18.218;2022-07-15T03:15:37;0.53;;;0.50;;
13443;SDS011;6794;59.218;18.218;2022-07-15T03:18:04;0.30;;;0.30;;
13443;SDS011;6794;59.218;18.218;2022-07-15T03:20:30;0.60;;;0.50;;
13443;SDS011;6794;59.218;18.218;2022-07-15T03:22:56;0.50;;;0.30;;
13443;SDS011;6794;59.218;18.218;2022-07-15T03:25:22;1.20;;;0.40;;
13443;SDS011;6794;59.218;18.218;2022-07-15T03:27:48;1.53;;;0.40;;
13443;SDS011;6794;59.218;18.218;2022-07-15T03:30:14;0.47;;;0.47;;
13443;SDS011;6794;59.218;18.218;2022-07-15T03:32:40;0.40;;;0.40;;
13443;SDS011;6794;59.218;18.218;2022-07-15T03:35:07;0.57;;;0.47;;
13443;SDS011;6794;59.218;18.218;2022-07-15T03:37:33;0.40;;;0.40;;
13443;SDS011;6794;59.218;18.218;2022-07-15T03:39:59;0.20;;;0.20;;
13443;SDS011;6794;59.218;18.218;2022-07-15T03:42:25;1.23;;;0.40;;
13443;SDS011;6794;59.218;18.218;2022-07-15T03:44:51;0.30;;;0.30;;
13443;SDS011;6794;59.218;18.218;2022-07-15T03:47:18;2.47;;;0.60;;
13443;SDS011;6794;59.218;18.218;2022-07-15T03:49:44;1.17;;;0.50;;
13443;SDS011;6794;59.218;18.218;2022-07-15T03:52:10;0.30;;;0.30;;
13443;SDS011;6794;59.218;18.218;2022-07-15T03:54:36;0.37;;;0.37;;
13443;SDS011;6794;59.218;18.218;2022-07-15T03:57:02;0.40;;;0.30;;
13443;SDS011;6794;59.218;18.218;2022-07-15T03:59:28;1.23;;;0.40;;
13443;SDS011;6794;59.218;18.218;2022-07-15T04:01:54;0.47;;;0.47;;
13443;SDS011;6794;59.218;18.218;2022-07-15T04:04:20;0.50;;;0.50;;
13443;SDS011;6794;59.218;18.218;2022-07-15T04:06:46;1.33;;;0.40;;
13443;SDS011;6794;59.218;18.218;2022-07-15T04:09:12;2.23;;;0.40;;
13443;SDS011;6794;59.218;18.218;2022-07-15T04:11:38;0.40;;;0.40;;
13443;SDS011;6794;59.218;18.218;2022-07-15T04:14:09;0.40;;;0.40;;
13443;SDS011;6794;59.218;18.218;2022-07-15T04:16:35;0.60;;;0.60;;
13443;SDS011;6794;59.218;18.218;2022-07-15T04:19:01;0.50;;;0.50;;
13443;SDS011;6794;59.218;18.218;2022-07-15T04:21:27;0.30;;;0.30;;
13443;SDS011;6794;59.218;18.218;2022-07-15T04:23:53;1.43;;;0.50;;
13443;SDS011;6794;59.218;18.218;2022-07-15T04:26:19;1.03;;;0.60;;
13443;SDS011;6794;59.218;18.218;2022-07-15T04:28:45;0.40;;;0.40;;
13443;SDS011;6794;59.218;18.218;2022-07-15T04:31:12;0.40;;;0.30;;
13443;SDS011;6794;59.218;18.218;2022-07-15T04:33:38;0.40;;;0.40;;
13443;SDS011;6794;59.218;18.218;2022-07-15T04:36:04;0.43;;;0.43;;
13443;SDS011;6794;59.218;18.218;2022-07-15T04:38:30;0.53;;;0.53;;
13443;SDS011;6794;59.218;18.218;2022-07-15T04:40:56;0.90;;;0.32;;
13443;SDS011;6794;59.218;18.218;2022-07-15T04:43:22;1.27;;;0.60;;
13443;SDS011;6794;59.218;18.218;2022-07-15T04:45:49;1.03;;;0.40;;
13443;SDS011;6794;59.218;18.218;2022-07-15T04:48:15;1.23;;;0.47;;
13443;SDS011;6794;59.218;18.218;2022-07-15T04:51:00;0.70;;;0.60;;
13443;SDS011;6794;59.218;18.218;2022-07-15T04:53:26;0.77;;;0.60;;
13443;SDS011;6794;59.218;18.218;2022-07-15T04:55:52;1.17;;;0.80;;
13443;SDS011;6794;59.218;18.218;2022-07-15T04:58:18;1.50;;;0.80;;
13443;SDS011;6794;59.218;18.218;2022-07-15T05:00:45;1.23;;;0.47;;
13443;SDS011;6794;59.218;18.218;2022-07-15T05:03:11;0.70;;;0.53;;
13443;SDS011;6794;59.218;18.218;2022-07-15T05:05:38;1.73;;;0.53;;
13443;SDS011;6794;59.218;18.218;2022-07-15T05:08:04;0.67;;;0.60;;
13443;SDS011;6794;59.218;18.218;2022-07-15T05:10:30;0.57;;;0.50;;
13443;SDS011;6794;59.218;18.218;2022-07-15T05:12:56;2.33;;;0.77;;
13443;SDS011;6794;59.218;18.218;2022-07-15T05:15:22;1.70;;;0.60;;
13443;SDS011;6794;59.218;18.218;2022-07-15T05:17:49;0.93;;;0.30;;
13443;SDS011;6794;59.218;18.218;2022-07-15T05:20:15;0.57;;;0.40;;
13443;SDS011;6794;59.218;18.218;2022-07-15T05:22:41;0.50;;;0.50;;
13443;SDS011;6794;59.218;18.218;2022-07-15T05:25:07;1.57;;;0.60;;
13443;SDS011;6794;59.218;18.218;2022-07-15T05:27:33;1.00;;;0.60;;
13443;SDS011;6794;59.218;18.218;2022-07-15T05:30:00;1.43;;;0.70;;
13443;SDS011;6794;59.218;18.218;2022-07-15T05:32:26;0.67;;;0.67;;
13443;SDS011;6794;59.218;18.218;2022-07-15T05:34:53;4.43;;;0.90;;
13443;SDS011;6794;59.218;18.218;2022-07-15T05:37:19;0.67;;;0.50;;
13443;SDS011;6794;59.218;18.218;2022-07-15T05:39:45;0.77;;;0.33;;
13443;SDS011;6794;59.218;18.218;2022-07-15T05:42:21;1.03;;;0.60;;
13443;SDS011;6794;59.218;18.218;2022-07-15T05:44:47;0.63;;;0.40;;
13443;SDS011;6794;59.218;18.218;2022-07-15T05:47:13;2.87;;;0.53;;
13443;SDS011;6794;59.218;18.218;2022-07-15T05:49:39;1.13;;;0.60;;
13443;SDS011;6794;59.218;18.218;2022-07-15T05:52:08;0.80;;;0.63;;
13443;SDS011;6794;59.218;18.218;2022-07-15T05:54:35;0.90;;;0.60;;
13443;SDS011;6794;59.218;18.218;2022-07-15T05:57:02;1.00;;;0.43;;
13443;SDS011;6794;59.218;18.218;2022-07-15T05:59:28;1.43;;;0.50;;
13443;SDS011;6794;59.218;18.218;2022-07-15T06:01:54;0.93;;;0.40;;
13443;SDS011;6794;59.218;18.218;2022-07-15T06:04:20;1.60;;;0.50;;
13443;SDS011;6794;59.218;18.218;2022-07-15T06:06:47;0.30;;;0.30;;
13443;SDS011;6794;59.218;18.218;2022-07-15T06:09:13;0.90;;;0.50;;
13443;SDS011;6794;59.218;18.218;2022-07-15T06:11:39;1.30;;;0.50;;
13443;SDS011;6794;59.218;18.218;2022-07-15T06:14:05;0.97;;;0.40;;
13443;SDS011;6794;59.218;18.218;2022-07-15T06:16:31;0.80;;;0.50;;
13443;SDS011;6794;59.218;18.218;2022-07-15T06:18:57;1.67;;;0.50;;
13443;SDS011;6794;59.218;18.218;2022-07-15T06:21:24;1.47;;;0.70;;
13443;SDS011;6794;59.218;18.218;2022-07-15T06:23:50;1.63;;;0.60;;
13443;SDS011;6794;59.218;18.218;2022-07-15T06:26:16;0.50;;;0.50;;
13443;SDS011;6794;59.218;18.218;2022-07-15T06:28:42;1.40;;;0.70;;
13443;SDS011;6794;59.218;18.218;2022-07-15T06:31:08;1.73;;;1.00;;
13443;SDS011;6794;59.218;18.218;2022-07-15T06:33:34;1.73;;;0.70;;
13443;SDS011;6794;59.218;18.218;2022-07-15T06:36:00;1.70;;;0.60;;
13443;SDS011;6794;59.218;18.218;2022-07-15T06:38:26;1.40;;;0.57;;
13443;SDS011;6794;59.218;18.218;2022-07-15T06:40:52;1.57;;;0.50;;
13443;SDS011;6794;59.218;18.218;2022-07-15T06:43:18;1.47;;;0.60;;
13443;SDS011;6794;59.218;18.218;2022-07-15T06:45:44;0.80;;;0.60;;
13443;SDS011;6794;59.218;18.218;2022-07-15T06:48:10;1.33;;;0.57;;
13443;SDS011;6794;59.218;18.218;2022-07-15T06:50:37;2.20;;;0.70;;
13443;SDS011;6794;59.218;18.218;2022-07-15T06:53:03;2.27;;;0.50;;
13443;SDS011;6794;59.218;18.218;2022-07-15T06:55:29;1.67;;;0.60;;
13443;SDS011;6794;59.218;18.218;2022-07-15T06:57:55;0.53;;;0.50;;
13443;SDS011;6794;59.218;18.218;2022-07-15T07:00:21;1.93;;;0.80;;
13443;SDS011;6794;59.218;18.218;2022-07-15T07:02:47;0.80;;;0.70;;
13443;SDS011;6794;59.218;18.218;2022-07-15T07:05:14;1.47;;;1.00;;
13443;SDS011;6794;59.218;18.218;2022-07-15T07:07:40;3.73;;;0.70;;
13443;SDS011;6794;59.218;18.218;2022-07-15T07:10:06;1.80;;;0.80;;
13443;SDS011;6794;59.218;18.218;2022-07-15T07:12:32;2.60;;;0.80;;
13443;SDS011;6794;59.218;18.218;2022-07-15T07:14:58;1.43;;;0.60;;
13443;SDS011;6794;59.218;18.218;2022-07-15T07:17:26;0.70;;;0.67;;
13443;SDS011;6794;59.218;18.218;2022-07-15T07:19:53;1.37;;;0.60;;
13443;SDS011;6794;59.218;18.218;2022-07-15T07:22:20;0.93;;;0.63;;
13443;SDS011;6794;59.218;18.218;2022-07-15T07:24:46;1.80;;;0.80;;
13443;SDS011;6794;59.218;18.218;2022-07-15T07:27:12;1.43;;;0.73;;
13443;SDS011;6794;59.218;18.218;2022-07-15T07:29:39;3.33;;;0.50;;
13443;SDS011;6794;59.218;18.218;2022-07-15T07:32:05;0.80;;;0.60;;
13443;SDS011;6794;59.218;18.218;2022-07-15T07:34:31;1.30;;;0.87;;
13443;SDS011;6794;59.218;18.218;2022-07-15T07:36:57;0.80;;;0.60;;
13443;SDS011;6794;59.218;18.218;2022-07-15T07:39:23;2.70;;;0.90;;
13443;SDS011;6794;59.218;18.218;2022-07-15T07:41:49;0.90;;;0.80;;
13443;SDS011;6794;59.218;18.218;2022-07-15T07:44:18;2.43;;;0.70;;
13443;SDS011;6794;59.218;18.218;2022-07-15T07:46:44;1.33;;;0.70;;
13443;SDS011;6794;59.218;18.218;2022-07-15T07:49:12;2.70;;;1.00;;
13443;SDS011;6794;59.218;18.218;2022-07-15T07:51:38;1.03;;;0.83;;
13443;SDS011;6794;59.218;18.218;2022-07-15T07:54:05;1.90;;;0.80;;
13443;SDS011;6794;59.218;18.218;2022-07-15T07:56:31;2.97;;;0.90;;
13443;SDS011;6794;59.218;18.218;2022-07-15T07:58:57;2.30;;;0.87;;
13443;SDS011;6794;59.218;18.218;2022-07-15T08:01:23;1.37;;;0.87;;
13443;SDS011;6794;59.218;18.218;2022-07-15T08:03:50;0.90;;;0.80;;
13443;SDS011;6794;59.218;18.218;2022-07-15T08:06:16;0.90;;;0.50;;
13443;SDS011;6794;59.218;18.218;2022-07-15T08:08:42;2.27;;;0.90;;
13443;SDS011;6794;59.218;18.218;2022-07-15T08:11:09;2.27;;;1.17;;
13443;SDS011;6794;59.218;18.218;2022-07-15T08:13:35;2.80;;;0.87;;
13443;SDS011;6794;59.218;18.218;2022-07-15T08:16:01;2.83;;;0.77;;
13443;SDS011;6794;59.218;18.218;2022-07-15T08:18:27;1.17;;;0.80;;
13443;SDS011;6794;59.218;18.218;2022-07-15T08:20:53;2.07;;;1.00;;
13443;SDS011;6794;59.218;18.218;2022-07-15T08:23:19;4.40;;;0.83;;
13443;SDS011;6794;59.218;18.218;2022-07-15T08:25:46;1.57;;;0.80;;
13443;SDS011;6794;59.218;18.218;2022-07-15T08:28:12;1.93;;;0.60;;
13443;SDS011;6794;59.218;18.218;2022-07-15T08:30:38;3.07;;;0.90;;
13443;SDS011;6794;59.218;18.218;2022-07-15T08:33:04;3.60;;;1.00;;
13443;SDS011;6794;59.218;18.218;2022-07-15T08:35:31;1.57;;;0.83;;
13443;SDS011;6794;59.218;18.218;2022-07-15T08:37:58;1.80;;;0.80;;
13443;SDS011;6794;59.218;18.218;2022-07-15T08:40:24;1.93;;;1.00;;
13443;SDS011;6794;59.218;18.218;2022-07-15T08:42:51;3.33;;;1.10;;
13443;SDS011;6794;59.218;18.218;2022-07-15T08:45:17;1.80;;;1.03;;
13443;SDS011;6794;59.218;18.218;2022-07-15T08:47:45;1.80;;;0.80;;
13443;SDS011;6794;59.218;18.218;2022-07-15T08:50:15;1.43;;;0.90;;
13443;SDS011;6794;59.218;18.218;2022-07-15T08:52:42;1.97;;;0.90;;
13443;SDS011;6794;59.218;18.218;2022-07-15T08:55:08;2.53;;;1.05;;
13443;SDS011;6794;59.218;18.218;2022-07-15T08:57:34;1.57;;;0.83;;
13443;SDS011;6794;59.218;18.218;2022-07-15T09:00:01;1.90;;;0.85;;
13443;SDS011;6794;59.218;18.218;2022-07-15T09:02:28;2.13;;;1.10;;
13443;SDS011;6794;59.218;18.218;2022-07-15T09:07:54;1.60;;;0.97;;
13443;SDS011;6794;59.218;18.218;2022-07-15T09:10:21;0.70;;;0.70;;
13443;SDS011;6794;59.218;18.218;2022-07-15T09:12:48;1.00;;;0.70;;
13443;SDS011;6794;59.218;18.218;2022-07-15T09:15:33;2.67;;;0.73;;
13443;SDS011;6794;59.218;18.218;2022-07-15T09:18:04;1.17;;;0.77;;
13443;SDS011;6794;59.218;18.218;2022-07-15T09:20:31;0.77;;;0.77;;
13443;SDS011;6794;59.218;18.218;2022-07-15T09:22:57;1.63;;;0.80;;
13443;SDS011;6794;59.218;18.218;2022-07-15T09:25:24;1.70;;;0.70;;
13443;SDS011;6794;59.218;18.218;2022-07-15T09:27:53;2.60;;;1.10;;
13443;SDS011;6794;59.218;18.218;2022-07-15T09:33:46;1.20;;;1.10;;
13443;SDS011;6794;59.218;18.218;2022-07-15T09:41:15;3.00;;;1.33;;
13443;SDS011;6794;59.218;18.218;2022-07-15T09:43:51;2.13;;;0.87;;
13443;SDS011;6794;59.218;18.218;2022-07-15T09:46:19;2.57;;;0.80;;
13443;SDS011;6794;59.218;18.218;2022-07-15T09:48:46;2.70;;;0.80;;
13443;SDS011;6794;59.218;18.218;2022-07-15T09:51:13;2.20;;;1.30;;
13443;SDS011;6794;59.218;18.218;2022-07-15T09:53:39;1.00;;;0.87;;
13443;SDS011;6794;59.218;18.218;2022-07-15T09:56:06;2.10;;;0.93;;
13443;SDS011;6794;59.218;18.218;2022-07-15T09:58:35;1.47;;;0.90;;
13443;SDS011;6794;59.218;18.218;2022-07-15T10:01:02;1.90;;;0.70;;
13443;SDS011;6794;59.218;18.218;2022-07-15T10:03:28;1.83;;;0.90;;
13443;SDS011;6794;59.218;18.218;2022-07-15T10:05:55;1.40;;;0.77;;
13443;SDS011;6794;59.218;18.218;2022-07-15T10:08:22;1.87;;;0.83;;
13443;SDS011;6794;59.218;18.218;2022-07-15T10:10:49;5.37;;;1.10;;
13443;SDS011;6794;59.218;18.218;2022-07-15T10:21:11;0.83;;;0.70;;
13443;SDS011;6794;59.218;18.218;2022-07-15T10:23:48;1.50;;;0.73;;
13443;SDS011;6794;59.218;18.218;2022-07-15T10:26:23;0.87;;;0.63;;
13443;SDS011;6794;59.218;18.218;2022-07-15T10:31:22;1.93;;;0.80;;
13443;SDS011;6794;59.218;18.218;2022-07-15T10:34:14;1.63;;;0.70;;
13443;SDS011;6794;59.218;18.218;2022-07-15T10:37:02;1.00;;;0.73;;
13443;SDS011;6794;59.218;18.218;2022-07-15T10:42:15;1.30;;;0.90;;
13443;SDS011;6794;59.218;18.218;2022-07-15T10:47:27;2.17;;;1.00;;
13443;SDS011;6794;59.218;18.218;2022-07-15T10:49:53;2.90;;;0.73;;
13443;SDS011;6794;59.218;18.218;2022-07-15T10:54:49;1.13;;;0.80;;
13443;SDS011;6794;59.218;18.218;2022-07-15T10:57:17;1.93;;;0.83;;
13443;SDS011;6794;59.218;18.218;2022-07-15T10:59:48;1.50;;;0.70;;
13443;SDS011;6794;59.218;18.218;2022-07-15T11:02:15;0.70;;;0.70;;
13443;SDS011;6794;59.218;18.218;2022-07-15T11:04:42;0.83;;;0.50;;
13443;SDS011;6794;59.218;18.218;2022-07-15T11:09:48;2.30;;;0.60;;
13443;SDS011;6794;59.218;18.218;2022-07-15T11:12:14;1.43;;;0.53;;
13443;SDS011;6794;59.218;18.218;2022-07-15T11:14:51;0.97;;;0.80;;
13443;SDS011;6794;59.218;18.218;2022-07-15T11:17:19;1.60;;;0.80;;
13443;SDS011;6794;59.218;18.218;2022-07-15T11:19:46;1.27;;;0.70;;
13443;SDS011;6794;59.218;18.218;2022-07-15T11:22:13;2.37;;;0.70;;
13443;SDS011;6794;59.218;18.218;2022-07-15T11:24:39;0.80;;;0.70;;
13443;SDS011;6794;59.218;18.218;2022-07-15T11:27:05;1.87;;;0.80;;
13443;SDS011;6794;59.218;18.218;2022-07-15T11:29:48;1.27;;;0.93;;
13443;SDS011;6794;59.218;18.218;2022-07-15T11:32:15;0.60;;;0.60;;
13443;SDS011;6794;59.218;18.218;2022-07-15T11:34:43;1.57;;;0.70;;
13443;SDS011;6794;59.218;18.218;2022-07-15T11:37:09;2.40;;;0.70;;
13443;SDS011;6794;59.218;18.218;2022-07-15T11:39:36;1.33;;;0.70;;
13443;SDS011;6794;59.218;18.218;2022-07-15T11:42:02;1.47;;;0.87;;
13443;SDS011;6794;59.218;18.218;2022-07-15T11:44:47;2.10;;;0.80;;
13443;SDS011;6794;59.218;18.218;2022-07-15T11:47:14;1.10;;;0.70;;
13443;SDS011;6794;59.218;18.218;2022-07-15T11:49:40;1.30;;;0.60;;
13443;SDS011;6794;59.218;18.218;2022-07-15T11:52:10;1.87;;;0.83;;
13443;SDS011;6794;59.218;18.218;2022-07-15T11:54:38;1.07;;;0.70;;
13443;SDS011;6794;59.218;18.218;2022-07-15T11:57:08;0.93;;;0.60;;
13443;SDS011;6794;59.218;18.218;2022-07-15T11:59:34;1.93;;;0.80;;
13443;SDS011;6794;59.218;18.218;2022-07-15T12:04:27;1.67;;;0.77;;
13443;SDS011;6794;59.218;18.218;2022-07-15T12:06:53;1.27;;;0.90;;
13443;SDS011;6794;59.218;18.218;2022-07-15T12:09:19;0.90;;;0.70;;
13443;SDS011;6794;59.218;18.218;2022-07-15T12:11:45;1.23;;;0.90;;
13443;SDS011;6794;59.218;18.218;2022-07-15T12:14:18;1.10;;;0.60;;
13443;SDS011;6794;59.218;18.218;2022-07-15T12:16:46;1.53;;;0.60;;
13443;SDS011;6794;59.218;18.218;2022-07-15T12:19:13;1.10;;;0.67;;
13443;SDS011;6794;59.218;18.218;2022-07-15T12:21:40;0.93;;;0.60;;
13443;SDS011;6794;59.218;18.218;2022-07-15T12:24:11;0.83;;;0.77;;
13443;SDS011;6794;59.218;18.218;2022-07-15T12:26:39;1.57;;;0.90;;
13443;SDS011;6794;59.218;18.218;2022-07-15T12:29:07;1.27;;;0.83;;
13443;SDS011;6794;59.218;18.218;2022-07-15T12:31:34;1.67;;;0.70;;
13443;SDS011;6794;59.218;18.218;2022-07-15T12:34:00;1.80;;;0.40;;
13443;SDS011;6794;59.218;18.218;2022-07-15T12:36:27;0.77;;;0.70;;
13443;SDS011;6794;59.218;18.218;2022-07-15T12:39:14;4.00;;;0.80;;
13443;SDS011;6794;59.218;18.218;2022-07-15T12:41:42;3.40;;;0.90;;
13443;SDS011;6794;59.218;18.218;2022-07-15T12:44:09;2.40;;;1.10;;
13443;SDS011;6794;59.218;18.218;2022-07-15T12:46:48;0.60;;;0.60;;
13443;SDS011;6794;59.218;18.218;2022-07-15T12:49:36;0.70;;;0.50;;
13443;SDS011;6794;59.218;18.218;2022-07-15T12:54:40;1.43;;;0.60;;
13443;SDS011;6794;59.218;18.218;2022-07-15T12:57:17;1.80;;;0.57;;
13443;SDS011;6794;59.218;18.218;2022-07-15T12:59:54;1.00;;;0.70;;
13443;SDS011;6794;59.218;18.218;2022-07-15T13:02:20;1.00;;;0.70;;
13443;SDS011;6794;59.218;18.218;2022-07-15T13:04:46;1.57;;;0.50;;
13443;SDS011;6794;59.218;18.218;2022-07-15T13:07:13;1.03;;;0.67;;
13443;SDS011;6794;59.218;18.218;2022-07-15T13:09:39;1.60;;;0.70;;
13443;SDS011;6794;59.218;18.218;2022-07-15T13:12:07;1.37;;;0.70;;
13443;SDS011;6794;59.218;18.218;2022-07-15T13:14:33;2.17;;;0.90;;
13443;SDS011;6794;59.218;18.218;2022-07-15T13:16:59;1.20;;;0.63;;
13443;SDS011;6794;59.218;18.218;2022-07-15T13:19:25;1.87;;;0.70;;
13443;SDS011;6794;59.218;18.218;2022-07-15T13:21:51;0.40;;;0.40;;
13443;SDS011;6794;59.218;18.218;2022-07-15T13:24:18;1.07;;;0.40;;
13443;SDS011;6794;59.218;18.218;2022-07-15T13:26:44;0.50;;;0.40;;
13443;SDS011;6794;59.218;18.218;2022-07-15T13:29:10;1.73;;;0.57;;
13443;SDS011;6794;59.218;18.218;2022-07-15T13:31:36;0.40;;;0.40;;
13443;SDS011;6794;59.218;18.218;2022-07-15T13:34:02;0.90;;;0.50;;
13443;SDS011;6794;59.218;18.218;2022-07-15T13:36:28;0.40;;;0.37;;
13443;SDS011;6794;59.218;18.218;2022-07-15T13:38:54;0.53;;;0.53;;
13443;SDS011;6794;59.218;18.218;2022-07-15T13:41:20;0.70;;;0.70;;
13443;SDS011;6794;59.218;18.218;2022-07-15T13:43:46;1.47;;;0.73;;
13443;SDS011;6794;59.218;18.218;2022-07-15T13:46:12;0.70;;;0.60;;
13443;SDS011;6794;59.218;18.218;2022-07-15T13:48:38;0.50;;;0.50;;
13443;SDS011;6794;59.218;18.218;2022-07-15T13:51:05;1.60;;;0.50;;
13443;SDS011;6794;59.218;18.218;2022-07-15T13:53:50;1.80;;;0.60;;
13443;SDS011;6794;59.218;18.218;2022-07-15T13:56:16;4.20;;;0.60;;
13443;SDS011;6794;59.218;18.218;2022-07-15T13:58:42;0.80;;;0.47;;
13443;SDS011;6794;59.218;18.218;2022-07-15T14:01:09;0.57;;;0.50;;
13443;SDS011;6794;59.218;18.218;2022-07-15T14:03:35;1.00;;;0.43;;
13443;SDS011;6794;59.218;18.218;2022-07-15T14:06:01;0.60;;;0.60;;
13443;SDS011;6794;59.218;18.218;2022-07-15T14:08:27;1.37;;;0.70;;
13443;SDS011;6794;59.218;18.218;2022-07-15T14:10:53;0.70;;;0.50;;
13443;SDS011;6794;59.218;18.218;2022-07-15T14:13:19;1.53;;;0.63;;
13443;SDS011;6794;59.218;18.218;2022-07-15T14:15:45;1.27;;;0.60;;
13443;SDS011;6794;59.218;18.218;2022-07-15T14:18:12;2.70;;;0.50;;
13443;SDS011;6794;59.218;18.218;2022-07-15T14:20:38;1.13;;;0.43;;
13443;SDS011;6794;59.218;18.218;2022-07-15T14:23:06;0.90;;;0.57;;
13443;SDS011;6794;59.218;18.218;2022-07-15T14:25:32;1.10;;;0.40;;
13443;SDS011;6794;59.218;18.218;2022-07-15T14:27:59;0.80;;;0.53;;
13443;SDS011;6794;59.218;18.218;2022-07-15T14:30:25;0.70;;;0.50;;
13443;SDS011;6794;59.218;18.218;2022-07-15T14:32:51;0.40;;;0.40;;
13443;SDS011;6794;59.218;18.218;2022-07-15T14:35:18;0.87;;;0.40;;
13443;SDS011;6794;59.218;18.218;2022-07-15T14:37:44;0.50;;;0.37;;
13443;SDS011;6794;59.218;18.218;2022-07-15T14:40:10;0.47;;;0.43;;
13443;SDS011;6794;59.218;18.218;2022-07-15T14:42:36;1.70;;;0.57;;
13443;SDS011;6794;59.218;18.218;2022-07-15T14:45:04;1.10;;;0.50;;
13443;SDS011;6794;59.218;18.218;2022-07-15T14:47:30;0.47;;;0.40;;
13443;SDS011;6794;59.218;18.218;2022-07-15T14:49:56;0.63;;;0.50;;
13443;SDS011;6794;59.218;18.218;2022-07-15T14:52:22;1.87;;;0.70;;
13443;SDS011;6794;59.218;18.218;2022-07-15T14:54:48;1.37;;;0.47;;
13443;SDS011;6794;59.218;18.218;2022-07-15T14:57:14;0.60;;;0.50;;
13443;SDS011;6794;59.218;18.218;2022-07-15T14:59:41;0.70;;;0.50;;
13443;SDS011;6794;59.218;18.218;2022-07-15T15:02:08;0.30;;;0.30;;
13443;SDS011;6794;59.218;18.218;2022-07-15T15:04:35;1.77;;;0.40;;
13443;SDS011;6794;59.218;18.218;2022-07-15T15:07:01;0.43;;;0.40;;
13443;SDS011;6794;59.218;18.218;2022-07-15T15:09:27;0.40;;;0.40;;
13443;SDS011;6794;59.218;18.218;2022-07-15T15:11:53;0.50;;;0.50;;
13443;SDS011;6794;59.218;18.218;2022-07-15T15:14:19;0.40;;;0.40;;
13443;SDS011;6794;59.218;18.218;2022-07-15T15:16:45;1.27;;;0.40;;
13443;SDS011;6794;59.218;18.218;2022-07-15T15:19:12;1.23;;;0.40;;
13443;SDS011;6794;59.218;18.218;2022-07-15T15:21:38;0.40;;;0.40;;
13443;SDS011;6794;59.218;18.218;2022-07-15T15:24:04;1.20;;;0.70;;
13443;SDS011;6794;59.218;18.218;2022-07-15T15:26:32;0.70;;;0.43;;